Time;durP1;ratioP1;P1;durP2;ratioP2;P2;SDS_P1;SDS_P2;PMS_P1;PMS_P2;Temp;Humidity;BMP_temperature;BMP_pressure;BME280_temperature;BME280_humidity;BME280_pressure;Samples;Min_cycle;Max_cycle;Signal;HPM_P1;HPM_P2
2022/04/28 00:00:44;;;;;;;29.07;19.73;;;;;;;10.40;91.29;94862.01;1767786;81;21588;-50
2022/04/28 00:03:12;;;;;;;27.90;19.27;;;;;;;10.41;91.58;94860.80;1768163;81;21404;-49
2022/04/28 00:05:41;;;;;;;29.57;18.45;;;;;;;10.46;92.22;94858.27;1768062;80;20929;-50
2022/04/28 00:08:09;;;;;;;31.97;19.45;;;;;;;10.55;92.01;94857.59;1765172;81;20996;-49
2022/04/28 00:10:37;;;;;;;32.42;18.85;;;;;;;10.61;91.78;94855.80;1767664;81;21000;-50
2022/04/28 00:13:06;;;;;;;36.23;22.32;;;;;;;10.66;91.49;94857.98;1767899;80;20992;-50
2022/04/28 00:15:35;;;;;;;36.45;22.48;;;;;;;10.72;91.61;94854.22;1767996;81;21008;-49
2022/04/28 00:18:03;;;;;;;35.80;21.68;;;;;;;10.79;91.55;94857.50;1767720;80;21243;-49
2022/04/28 00:20:29;;;;;;;29.67;19.62;;;;;;;10.84;91.07;94847.30;1767792;81;20953;-49
2022/04/28 00:22:56;;;;;;;27.85;16.55;;;;;;;10.89;90.61;94846.74;1767744;80;21044;-50
2022/04/28 00:25:24;;;;;;;24.65;16.00;;;;;;;10.92;90.21;94849.98;1768031;81;20997;-49
2022/04/28 00:27:54;;;;;;;24.35;16.48;;;;;;;10.89;89.59;94852.25;1768108;81;21008;-50
2022/04/28 00:30:20;;;;;;;25.57;18.07;;;;;;;10.82;89.39;94854.48;1767737;81;21258;-48
2022/04/28 00:32:48;;;;;;;24.72;15.58;;;;;;;10.76;89.69;94857.02;1767885;81;21015;-50
2022/04/28 00:35:16;;;;;;;23.50;16.30;;;;;;;10.74;89.73;94856.70;1767978;80;21551;-49
2022/04/28 00:37:43;;;;;;;20.70;15.43;;;;;;;10.69;89.45;94850.98;1767716;80;21068;-50
2022/04/28 00:40:12;;;;;;;23.87;16.23;;;;;;;10.66;89.53;94849.72;1768160;80;20948;-49
2022/04/28 00:42:41;;;;;;;21.57;16.65;;;;;;;10.64;89.75;94850.19;1767975;80;20929;-49
2022/04/28 00:45:08;;;;;;;24.75;16.87;;;;;;;10.67;90.04;94848.51;1767998;80;21417;-50
2022/04/28 00:50:39;;;;;;;20.30;15.18;;;;;;;10.67;89.88;94844.38;1768016;80;20965;-49
2022/04/28 00:53:07;;;;;;;21.45;14.60;;;;;;;10.70;90.15;94844.89;1768152;81;21020;-49
2022/04/28 00:55:33;;;;;;;20.12;14.00;;;;;;;10.75;90.21;94852.73;1768096;81;21246;-49
2022/04/28 00:58:02;;;;;;;20.45;14.73;;;;;;;10.80;89.97;94848.03;1767625;80;20993;-49
2022/04/28 01:00:29;;;;;;;18.40;13.15;;;;;;;10.82;89.47;94841.47;1768232;80;21401;-50
2022/04/28 01:02:56;;;;;;;19.25;14.73;;;;;;;10.81;89.01;94845.44;1770918;80;20992;-49
2022/04/28 01:05:26;;;;;;;19.27;14.25;;;;;;;10.79;88.85;94844.36;1771370;80;20996;-49
2022/04/28 01:07:54;;;;;;;18.65;14.00;;;;;;;10.76;88.98;94837.00;1771464;81;20988;-50
2022/04/28 01:10:21;;;;;;;19.12;14.18;;;;;;;10.73;88.99;94835.13;1770855;80;21009;-50
2022/04/28 01:12:50;;;;;;;22.52;13.35;;;;;;;10.70;89.13;94836.64;1771276;81;21056;-49
2022/04/28 01:15:18;;;;;;;19.57;13.30;;;;;;;10.69;89.30;94833.73;1771377;80;20964;-49
2022/04/28 01:17:47;;;;;;;15.78;11.30;;;;;;;10.69;89.12;94840.60;1747791;81;21048;-49
2022/04/28 01:20:14;;;;;;;14.45;11.12;;;;;;;10.69;89.17;94839.98;1771409;80;21266;-51
2022/04/28 01:22:42;;;;;;;14.03;11.20;;;;;;;10.68;88.89;94843.95;1771054;81;20940;-50
2022/04/28 01:25:14;;;;;;;14.78;10.03;;;;;;;10.64;88.97;94835.64;1771681;81;21483;-50
2022/04/28 01:27:42;;;;;;;15.88;10.63;;;;;;;10.62;89.05;94843.58;1771350;81;20961;-50
2022/04/28 01:30:14;;;;;;;15.20;10.68;;;;;;;10.60;89.45;94844.05;1771219;81;21440;-49
2022/04/28 01:32:44;;;;;;;50.43;30.77;;;;;;;10.64;89.27;94841.15;1771217;81;21226;-49
2022/04/28 01:35:12;;;;;;;184.65;96.75;;;;;;;10.61;89.05;94839.30;1771124;80;20954;-50
2022/04/28 01:37:41;;;;;;;103.78;56.85;;;;;;;10.59;89.13;94834.25;1770991;81;21531;-49
2022/04/28 01:40:14;;;;;;;147.53;77.20;;;;;;;10.59;89.29;94840.34;1771042;81;21476;-50
2022/04/28 01:42:45;;;;;;;129.47;71.07;;;;;;;10.58;89.45;94830.55;1747761;81;21590;-50
2022/04/28 01:45:13;;;;;;;50.83;31.75;;;;;;;10.61;89.53;94829.66;1747937;81;21117;-49
2022/04/28 01:47:48;;;;;;;19.73;13.43;;;;;;;10.62;89.23;94831.20;1761776;81;20953;-49
2022/04/28 01:50:28;;;;;;;20.70;14.18;;;;;;;10.59;88.95;94823.84;1768083;81;21048;-50
2022/04/28 01:56:04;;;;;;;17.23;12.70;;;;;;;10.52;89.56;94823.47;1771447;81;21012;-49
2022/04/28 01:58:34;;;;;;;12.15;10.30;;;;;;;10.54;89.66;94821.05;1734544;81;21043;-50
2022/04/28 02:01:15;;;;;;;8.55;7.53;;;;;;;10.59;89.35;94822.47;1769533;80;21000;-50
2022/04/28 02:03:42;;;;;;;9.90;7.35;;;;;;;10.56;88.90;94819.23;1772935;81;20996;-49
2022/04/28 02:06:10;;;;;;;6.97;6.28;;;;;;;10.49;88.79;94826.36;1771370;81;20980;-49
2022/04/28 02:08:39;;;;;;;8.68;6.50;;;;;;;10.40;88.99;94829.01;1771270;81;21024;-51
2022/04/28 02:11:07;;;;;;;7.70;6.62;;;;;;;10.36;89.10;94825.61;1747362;81;21158;-49
2022/04/28 02:13:41;;;;;;;7.22;6.00;;;;;;;10.37;89.56;94828.52;1767600;81;20949;-50
2022/04/28 02:16:26;;;;;;;7.85;6.78;;;;;;;10.41;89.48;94827.80;1768070;81;20993;-49
2022/04/28 02:19:04;;;;;;;10.10;8.88;;;;;;;10.43;89.53;94818.48;1768356;81;21040;-49
2022/04/28 02:21:31;;;;;;;9.10;7.55;;;;;;;10.45;89.53;94814.69;1771209;80;20964;-48
2022/04/28 02:24:00;;;;;;;10.25;8.40;;;;;;;10.45;89.08;94818.22;1771235;80;21452;-48
2022/04/28 02:26:27;;;;;;;11.57;8.38;;;;;;;10.45;89.17;94808.59;1771230;81;21025;-49
2022/04/28 02:28:55;;;;;;;7.40;6.62;;;;;;;10.46;89.22;94808.75;1748023;81;21052;-48
2022/04/28 02:31:23;;;;;;;7.00;6.33;;;;;;;10.48;89.33;94811.05;1771190;80;21044;-49
2022/04/28 02:33:50;;;;;;;7.70;6.47;;;;;;;10.48;88.92;94809.67;1771210;81;20969;-50
2022/04/28 02:36:19;;;;;;;7.42;6.20;;;;;;;10.40;88.83;94813.88;1770289;81;21454;-48
2022/04/28 02:38:48;;;;;;;7.70;6.42;;;;;;;10.30;88.84;94812.24;1770941;80;20956;-49
2022/04/28 02:41:20;;;;;;;9.60;7.20;;;;;;;10.25;89.05;94811.44;1771360;81;21048;-49
2022/04/28 02:43:44;;;;;;;9.48;7.70;;;;;;;10.21;89.30;94814.32;1771034;81;21040;-50
2022/04/28 02:46:13;;;;;;;8.63;7.05;;;;;;;10.17;89.54;94818.39;1771284;81;21070;-50
2022/04/28 02:48:43;;;;;;;7.62;6.72;;;;;;;10.14;89.83;94811.78;1761174;81;21007;-49
2022/04/28 02:51:11;;;;;;;7.83;6.03;;;;;;;10.12;89.87;94810.68;1771060;80;21424;-49
2022/04/28 02:53:40;;;;;;;7.33;6.15;;;;;;;10.07;90.07;94809.28;1771240;81;20956;-49
2022/04/28 02:56:07;;;;;;;7.78;6.40;;;;;;;10.11;90.62;94807.77;1771340;81;21003;-50
2022/04/28 02:58:34;;;;;;;9.23;7.75;;;;;;;10.13;90.84;94802.00;1771122;81;21013;-49
2022/04/28 03:01:02;;;;;;;10.90;8.03;;;;;;;10.19;91.14;94804.97;1771047;81;21176;-49
2022/04/28 03:03:31;;;;;;;10.72;9.20;;;;;;;10.27;91.08;94810.38;1768006;80;20937;-48
2022/04/28 03:11:32;;;;;;;8.73;7.03;;;;;;;10.32;90.05;94818.09;1767916;80;21075;-49
2022/04/28 03:14:00;;;;;;;7.65;6.95;;;;;;;10.27;89.99;94819.42;1740213;81;20983;-49
2022/04/28 03:16:28;;;;;;;6.65;6.03;;;;;;;10.26;90.09;94823.38;1768019;81;21508;-49
2022/04/28 03:19:06;;;;;;;7.55;6.85;;;;;;;10.19;89.96;94819.47;1765443;80;21016;-49
2022/04/28 03:21:34;;;;;;;9.53;6.42;;;;;;;10.14;90.13;94820.66;1767964;80;21032;-49
2022/04/28 03:24:04;;;;;;;6.42;5.83;;;;;;;10.14;90.54;94824.16;1767906;80;21089;-50
2022/04/28 03:26:31;;;;;;;7.05;6.35;;;;;;;10.16;90.93;94825.10;1768047;81;21237;-49
2022/04/28 03:28:58;;;;;;;8.15;7.05;;;;;;;10.22;91.16;94828.23;1767793;81;21012;-49
2022/04/28 03:31:27;;;;;;;7.17;6.47;;;;;;;10.27;91.01;94828.25;1767869;81;21521;-48
2022/04/28 03:33:56;;;;;;;6.62;5.97;;;;;;;10.26;90.55;94839.09;1766214;81;21511;-49
2022/04/28 03:39:09;;;;;;;8.58;7.42;;;;;;;10.26;90.83;94837.72;1767829;81;21153;-49
2022/04/28 03:41:36;;;;;;;7.37;6.67;;;;;;;10.27;90.67;94842.79;1767768;80;20992;-49
2022/04/28 03:44:04;;;;;;;8.18;6.78;;;;;;;10.28;90.68;94854.53;1767710;80;21012;-50
2022/04/28 03:46:31;;;;;;;5.80;5.28;;;;;;;10.28;90.55;94854.53;1767954;80;20964;-49
2022/04/28 03:48:58;;;;;;;7.50;5.17;;;;;;;10.28;90.26;94864.16;1767695;81;20984;-51
2022/04/28 03:51:26;;;;;;;35.38;19.48;;;;;;;10.30;90.83;94861.73;1767888;81;21140;-49
2022/04/28 03:53:59;;;;;;;45.03;26.40;;;;;;;10.33;90.75;94858.13;1767749;80;21092;-49
2022/04/28 03:56:22;;;;;;;22.73;15.15;;;;;;;10.35;90.55;94857.08;1739992;81;20957;-50
2022/04/28 03:58:50;;;;;;;34.18;20.08;;;;;;;10.38;90.72;94856.94;1767766;80;20949;-49
2022/04/28 04:01:17;;;;;;;24.00;16.57;;;;;;;10.45;90.63;94858.69;1767750;81;21497;-50
2022/04/28 04:04:04;;;;;;;22.95;15.13;;;;;;;10.53;90.10;94855.89;1767894;80;21036;-50
2022/04/28 04:06:32;;;;;;;9.13;7.83;;;;;;;10.51;89.43;94863.19;1733051;81;20941;-49
2022/04/28 04:09:03;;;;;;;12.23;9.73;;;;;;;10.50;89.55;94863.03;1762682;81;21116;-50
2022/04/28 04:11:30;;;;;;;14.83;9.05;;;;;;;10.52;89.15;94861.23;1767902;81;21003;-49
2022/04/28 04:13:59;;;;;;;9.10;8.08;;;;;;;10.48;88.74;94868.80;1767802;81;20929;-49
2022/04/28 04:16:25;;;;;;;17.15;11.85;;;;;;;10.42;88.70;94865.87;1768233;81;21228;-50
2022/04/28 04:18:54;;;;;;;9.43;7.60;;;;;;;10.38;88.83;94863.81;1766344;81;21008;-49
2022/04/28 04:21:23;;;;;;;17.17;12.65;;;;;;;10.41;89.29;94869.05;1767608;81;21039;-49
2022/04/28 04:23:50;;;;;;;16.57;12.73;;;;;;;10.40;89.14;94874.38;1768031;80;20964;-51
2022/04/28 04:26:16;;;;;;;17.73;12.63;;;;;;;10.36;89.09;94868.23;1767982;81;21009;-51
2022/04/28 04:28:43;;;;;;;13.88;9.85;;;;;;;10.30;89.28;94869.98;1768248;80;21492;-50
2022/04/28 04:34:16;;;;;;;18.90;12.58;;;;;;;10.28;89.47;94875.95;1766884;81;21048;-49
2022/04/28 04:36:43;;;;;;;15.90;11.75;;;;;;;10.26;89.54;94876.21;1767902;80;21044;-51
2022/04/28 04:39:11;;;;;;;21.37;14.93;;;;;;;10.27;89.74;94880.50;1767716;81;20988;-55
2022/04/28 04:41:40;;;;;;;20.62;15.20;;;;;;;10.25;89.59;94886.45;1766952;81;21104;-55
2022/04/28 04:44:13;;;;;;;16.80;13.15;;;;;;;10.26;89.79;94881.71;1740359;81;21016;-55
2022/04/28 04:46:36;;;;;;;15.75;12.20;;;;;;;10.33;89.84;94876.75;1767344;81;21012;-49
2022/04/28 04:49:22;;;;;;;16.55;11.83;;;;;;;10.41;89.56;94882.80;1767966;80;21076;-50
2022/04/28 04:51:51;;;;;;;16.97;12.65;;;;;;;10.43;89.56;94883.91;1764684;81;20988;-50
2022/04/28 04:54:23;;;;;;;16.15;12.03;;;;;;;10.47;90.10;94883.17;1765443;80;21266;-50
2022/04/28 04:56:53;;;;;;;17.75;12.60;;;;;;;10.50;89.90;94888.41;1768275;80;20929;-50
2022/04/28 04:59:19;;;;;;;15.72;12.35;;;;;;;10.48;89.66;94888.05;1767894;80;20945;-48
2022/04/28 05:01:46;;;;;;;24.80;17.20;;;;;;;10.51;89.92;94888.57;1767777;80;21491;-50
2022/04/28 05:04:33;;;;;;;50.55;30.45;;;;;;;10.58;89.77;94893.83;1751525;81;20948;-52
2022/04/28 05:07:13;;;;;;;35.23;22.75;;;;;;;10.65;89.82;94894.36;1735017;81;21154;-50
2022/04/28 05:09:40;;;;;;;40.48;24.95;;;;;;;10.75;89.24;94902.27;1771345;81;21009;-50
2022/04/28 05:12:09;;;;;;;37.45;22.80;;;;;;;10.77;88.90;94897.08;1771222;81;21048;-53
2022/04/28 05:14:53;;;;;;;47.35;26.57;;;;;;;10.80;88.64;94895.44;1771133;81;21055;-51
2022/04/28 05:17:22;;;;;;;120.37;56.48;;;;;;;10.83;88.07;94907.67;1771144;81;20984;-51
2022/04/28 05:20:08;;;;;;;87.50;42.35;;;;;;;10.87;87.88;94903.44;1767996;79;21082;-51
2022/04/28 05:22:40;;;;;;;99.83;49.77;;;;;;;10.86;87.32;94904.06;1712674;80;21400;-54
2022/04/28 05:25:23;;;;;;;70.28;36.53;;;;;;;10.82;87.43;94906.14;1667160;83;21097;-50
2022/04/28 05:28:01;;;;;;;38.70;23.52;;;;;;;10.86;87.49;94906.81;1632916;86;21037;-51
2022/04/28 05:30:47;;;;;;;20.08;14.53;;;;;;;10.91;87.34;94904.87;1761244;81;21014;-51
2022/04/28 05:33:15;;;;;;;27.30;17.10;;;;;;;10.91;86.96;94906.24;1745301;81;21145;-50
2022/04/28 05:36:02;;;;;;;40.85;25.72;;;;;;;10.89;86.96;94909.27;1697152;84;20970;-50
2022/04/28 05:38:29;;;;;;;42.40;24.67;;;;;;;10.90;87.18;94910.21;1696155;83;21315;-56
2022/04/28 05:40:57;;;;;;;34.00;23.27;;;;;;;10.91;87.37;94914.50;1719306;81;21002;-54
2022/04/28 05:46:11;;;;;;;47.00;28.70;;;;;;;11.04;87.17;94918.58;1762872;81;21293;-50
2022/04/28 05:48:38;;;;;;;55.10;32.73;;;;;;;11.09;87.14;94921.55;1767085;80;21102;-53
2022/04/28 05:51:05;;;;;;;31.68;21.35;;;;;;;11.16;87.00;94916.41;1757482;79;21041;-52
2022/04/28 05:53:34;;;;;;;32.28;23.65;;;;;;;11.20;86.86;94916.42;1760081;79;21030;-55
2022/04/28 05:56:03;;;;;;;35.30;23.30;;;;;;;11.21;85.97;94914.45;1771072;79;21517;-53
2022/04/28 05:58:33;;;;;;;27.98;19.32;;;;;;;11.15;85.75;94921.75;1753325;79;21135;-51
2022/04/28 06:01:18;;;;;;;36.08;23.12;;;;;;;11.11;85.41;94919.11;1745145;81;21070;-53
2022/04/28 06:03:46;;;;;;;33.88;23.52;;;;;;;11.02;85.67;94920.39;1761022;79;20999;-50
2022/04/28 06:06:16;;;;;;;22.10;15.93;;;;;;;11.03;85.95;94921.96;1763882;80;21058;-57
2022/04/28 06:08:45;;;;;;;86.82;59.85;;;;;;;11.10;86.19;94924.45;1757067;79;21538;-50
2022/04/28 06:11:12;;;;;;;38.67;28.38;;;;;;;11.16;85.54;94925.42;1658356;83;21204;-50
2022/04/28 06:13:41;;;;;;;21.10;16.15;;;;;;;11.19;85.43;94920.39;1675535;82;21097;-51
2022/04/28 06:16:28;;;;;;;14.45;10.72;;;;;;;11.21;85.54;94919.33;1648299;83;21163;-51
2022/04/28 06:18:56;;;;;;;10.20;8.83;;;;;;;11.25;85.42;94919.22;1656442;85;21040;-52
2022/04/28 06:21:42;;;;;;;15.03;12.13;;;;;;;11.31;85.32;94919.58;1731248;79;21061;-52
2022/04/28 06:24:09;;;;;;;19.12;15.15;;;;;;;11.40;84.99;94921.05;1732468;79;21194;-51
2022/04/28 06:26:37;;;;;;;14.30;11.73;;;;;;;11.51;84.67;94928.92;1753915;79;21061;-51
2022/04/28 06:29:05;;;;;;;15.30;12.25;;;;;;;11.63;84.04;94922.00;1743262;79;20995;-53
2022/04/28 06:31:34;;;;;;;18.55;13.88;;;;;;;11.74;83.25;94922.36;1746228;81;21118;-54
2022/04/28 06:34:04;;;;;;;27.02;19.07;;;;;;;11.82;83.12;94918.73;1750736;79;21054;-54
2022/04/28 06:36:34;;;;;;;17.55;12.03;;;;;;;11.88;82.97;94927.35;1745857;79;21229;-51
2022/04/28 06:39:02;;;;;;;15.58;10.32;;;;;;;11.95;82.36;94932.62;1753204;79;21601;-53
2022/04/28 06:41:29;;;;;;;12.05;10.23;;;;;;;11.96;81.78;94926.48;1751368;79;21018;-52
2022/04/28 06:44:00;;;;;;;11.40;8.70;;;;;;;11.93;81.50;94929.52;1751011;79;21125;-54
2022/04/28 06:46:31;;;;;;;11.28;9.55;;;;;;;11.90;81.21;94924.91;1752533;79;21097;-53
2022/04/28 06:49:01;;;;;;;12.45;10.50;;;;;;;11.88;81.14;94933.49;1759033;79;21222;-51
2022/04/28 06:51:47;;;;;;;13.28;10.80;;;;;;;11.86;81.02;94927.04;1745776;79;21000;-53
2022/04/28 06:54:33;;;;;;;16.80;12.60;;;;;;;11.86;81.07;94924.91;1741374;80;20990;-56
2022/04/28 06:57:00;;;;;;;15.43;10.15;;;;;;;11.91;80.96;94931.96;1736798;81;21067;-54
2022/04/28 06:59:30;;;;;;;18.42;12.68;;;;;;;11.96;80.88;94934.16;1744481;79;21010;-52
2022/04/28 07:01:57;;;;;;;20.10;14.43;;;;;;;12.01;80.73;94932.19;1688015;83;21150;-52
2022/04/28 07:04:26;;;;;;;23.80;17.12;;;;;;;12.07;81.10;94935.88;1689863;82;21036;-50
2022/04/28 07:06:54;;;;;;;20.37;14.13;;;;;;;12.14;80.59;94945.28;1696067;83;21196;-52
2022/04/28 07:09:23;;;;;;;21.40;14.90;;;;;;;12.24;80.51;94950.23;1737727;79;21048;-53
2022/04/28 07:11:50;;;;;;;15.83;12.55;;;;;;;12.31;80.17;94945.22;1720121;82;20974;-53
2022/04/28 07:14:38;;;;;;;17.02;11.35;;;;;;;12.33;79.52;94951.05;1739322;79;21521;-52
2022/04/28 07:17:13;;;;;;;19.37;13.43;;;;;;;12.28;79.33;94944.72;1733000;81;21109;-52
2022/04/28 07:19:55;;;;;;;17.23;12.80;;;;;;;12.24;79.69;94950.98;1745744;79;21070;-55
2022/04/28 07:22:23;;;;;;;21.23;14.95;;;;;;;12.22;79.72;94953.44;1699050;81;21519;-54
2022/04/28 07:24:50;;;;;;;16.12;11.73;;;;;;;12.23;80.06;94947.32;1754509;81;21084;-55
2022/04/28 07:27:17;;;;;;;13.10;9.30;;;;;;;12.20;79.63;94955.09;1751459;79;21911;-52
2022/04/28 07:29:46;;;;;;;23.83;14.45;;;;;;;12.10;79.24;94954.28;1742002;79;21098;-51
2022/04/28 07:32:15;;;;;;;55.30;29.07;;;;;;;12.06;79.78;94956.41;1759850;79;21045;-58
2022/04/28 07:35:01;;;;;;;30.60;18.75;;;;;;;12.13;79.99;94958.91;1752082;79;21495;-51
2022/04/28 07:37:46;;;;;;;20.02;15.18;;;;;;;12.14;80.03;94959.08;1718309;81;21566;-53
2022/04/28 07:40:36;;;;;;;18.60;15.20;;;;;;;12.15;79.82;94971.64;1647335;85;21213;-50
2022/04/28 07:43:07;;;;;;;14.70;10.72;;;;;;;12.05;79.50;94965.91;1727128;81;21117;-52
2022/04/28 07:45:34;;;;;;;14.78;10.35;;;;;;;12.02;79.82;94969.56;1744861;79;21070;-53
2022/04/28 07:48:06;;;;;;;12.65;9.85;;;;;;;11.99;79.93;94961.41;1744583;79;21015;-53
2022/04/28 07:50:34;;;;;;;16.23;11.83;;;;;;;11.95;80.36;94967.08;1677067;83;21077;-51
2022/04/28 07:53:15;;;;;;;20.88;15.15;;;;;;;11.96;80.85;94965.86;1700592;82;21251;-54
2022/04/28 07:56:10;;;;;;;17.12;13.10;;;;;;;11.99;81.19;94972.45;1707078;82;21111;-52
2022/04/28 07:58:14;;;;;;;14.63;11.40;;;;;;;12.05;81.38;94973.42;1686276;83;32716;-50
2022/04/28 08:00:49;;;;;;;14.10;10.55;;;;;;;12.11;81.22;94971.61;1676207;82;21088;-50
2022/04/28 08:03:19;;;;;;;11.95;9.33;;;;;;;12.14;81.15;94972.86;1748898;79;21408;-51
2022/04/28 08:05:47;;;;;;;14.05;9.93;;;;;;;12.21;81.30;94975.34;1742317;79;21176;-50
2022/04/28 08:08:15;;;;;;;14.03;9.35;;;;;;;12.32;81.21;94976.31;1745744;81;21030;-52
2022/04/28 08:10:44;;;;;;;11.25;8.43;;;;;;;12.42;80.68;94984.81;1749693;81;21038;-51
2022/04/28 08:13:12;;;;;;;11.75;9.20;;;;;;;12.47;80.98;94982.83;1721506;81;21035;-52
2022/04/28 08:15:49;;;;;;;11.88;9.90;;;;;;;12.49;80.05;94983.89;1741573;80;21668;-55
2022/04/28 08:18:19;;;;;;;;;;;;;;;12.48;79.82;94982.98;1692137;82;22283;-52
2022/04/28 08:20:45;;;;;;;16.65;11.45;;;;;;;12.42;80.09;94981.42;1732161;81;20230;-53
2022/04/28 08:23:13;;;;;;;15.93;10.70;;;;;;;12.35;80.37;94984.47;1747971;80;21509;-54
2022/04/28 08:25:43;;;;;;;15.00;10.88;;;;;;;12.44;80.71;94992.77;1744788;80;21046;-56
2022/04/28 08:28:14;;;;;;;16.10;11.23;;;;;;;12.58;79.73;94977.05;1727614;81;21006;-54
2022/04/28 08:30:44;;;;;;;16.62;10.68;;;;;;;12.72;79.27;94981.39;1731577;81;20983;-52
2022/04/28 08:33:11;;;;;;;17.02;11.88;;;;;;;12.86;78.95;94981.46;1735094;81;20987;-53
2022/04/28 08:35:40;;;;;;;16.07;11.08;;;;;;;12.98;78.39;94984.13;1751933;79;20951;-53
2022/04/28 08:38:10;;;;;;;13.62;10.15;;;;;;;13.02;78.31;94981.98;1748056;80;21063;-51
2022/04/28 08:40:38;;;;;;;10.75;8.80;;;;;;;13.10;78.06;94983.84;1727824;81;21046;-52
2022/04/28 08:43:07;;;;;;;14.05;9.83;;;;;;;13.10;77.58;94978.32;1739311;81;21151;-53
2022/04/28 08:46:50;;;;;;;10.58;7.75;;;;;;;13.09;77.52;94976.78;1755843;80;21189;-51
2022/04/28 08:48:24;;;;;;;10.90;7.95;;;;;;;13.15;77.40;94979.88;1741564;81;21010;-50
2022/04/28 08:51:02;;;;;;;16.77;11.43;;;;;;;13.25;75.64;94975.12;1702232;81;21084;-55
2022/04/28 08:53:31;;;;;;;13.32;9.58;;;;;;;13.36;75.08;94971.28;1729966;81;21027;-53
2022/04/28 08:55:59;;;;;;;13.10;10.18;;;;;;;13.49;74.51;94974.69;1752225;80;21101;-52
2022/04/28 08:58:26;;;;;;;10.60;7.45;;;;;;;13.63;74.09;94974.08;1753347;81;21121;-52
2022/04/28 09:00:54;;;;;;;9.05;6.20;;;;;;;13.80;72.90;94973.30;1744374;81;21054;-52
2022/04/28 09:03:28;;;;;;;9.50;7.50;;;;;;;13.80;71.59;94977.44;1742767;79;21166;-49
2022/04/28 09:06:23;;;;;;;15.40;11.03;;;;;;;13.74;71.70;94979.90;1734031;81;21189;-51
2022/04/28 09:08:52;;;;;;;10.43;8.10;;;;;;;13.70;71.43;94980.08;1720474;79;21387;-51
2022/04/28 09:11:29;;;;;;;8.70;7.00;;;;;;;13.62;71.40;94976.69;1694101;79;21033;-52
2022/04/28 09:14:09;;;;;;;9.00;7.17;;;;;;;13.51;71.69;94981.30;1752690;79;21042;-52
2022/04/28 09:17:01;;;;;;;9.65;8.63;;;;;;;13.40;72.10;94979.59;1763589;79;21013;-54
2022/04/28 09:19:33;;;;;;;10.72;8.73;;;;;;;13.22;72.67;94986.47;1738827;80;21092;-51
2022/04/28 09:22:12;;;;;;;14.95;10.55;;;;;;;13.04;73.50;94987.06;1722703;83;21242;-52
2022/04/28 09:24:44;;;;;;;16.60;11.93;;;;;;;12.83;74.44;94983.13;1742234;81;20993;-50
2022/04/28 09:27:13;;;;;;;20.90;12.98;;;;;;;12.69;74.68;94987.83;1729946;79;21021;-52
2022/04/28 09:29:40;;;;;;;11.33;9.23;;;;;;;12.64;75.54;94992.56;1751999;79;21053;-53
2022/04/28 09:32:12;;;;;;;15.50;10.95;;;;;;;12.66;75.87;94996.23;1769481;79;21302;-52
2022/04/28 09:35:05;;;;;;;13.50;9.38;;;;;;;12.67;76.12;95004.08;1697006;83;21325;-54
2022/04/28 09:37:41;;;;;;;13.90;9.45;;;;;;;12.69;76.41;95002.26;1662986;83;21064;-54
2022/04/28 09:43:02;;;;;;;32.53;18.15;;;;;;;12.74;77.12;94998.89;1702165;82;21109;-54
2022/04/28 09:45:33;;;;;;;19.50;12.53;;;;;;;12.77;76.58;94998.77;1675805;83;21210;-52
2022/04/28 09:48:05;;;;;;;10.25;6.28;;;;;;;12.84;76.44;95007.35;1696730;82;21576;-53
2022/04/28 09:50:34;;;;;;;18.55;12.20;;;;;;;12.92;76.01;95004.48;1693713;82;21049;-51
2022/04/28 09:53:08;;;;;;;26.70;16.05;;;;;;;12.91;76.01;95009.84;1713858;82;21073;-54
2022/04/28 09:55:42;;;;;;;8.58;6.78;;;;;;;12.88;75.67;95010.13;1667775;83;21060;-55
2022/04/28 09:58:22;;;;;;;7.33;6.22;;;;;;;12.88;75.99;95013.52;1671656;83;21067;-56
2022/04/28 10:00:50;;;;;;;20.37;12.68;;;;;;;12.80;76.38;95003.97;1699125;83;21473;-53
2022/04/28 10:03:18;;;;;;;11.00;7.33;;;;;;;12.80;76.29;95012.25;1688313;82;22179;-53
2022/04/28 10:05:45;;;;;;;18.48;11.18;;;;;;;12.87;76.03;95007.84;1730463;82;21061;-50
2022/04/28 10:08:36;;;;;;;21.07;14.00;;;;;;;12.92;75.68;95010.78;1774861;80;20990;-50
2022/04/28 10:11:09;;;;;;;11.20;8.23;;;;;;;12.87;76.01;95011.98;1763646;80;21121;-52
2022/04/28 10:13:36;;;;;;;17.40;10.67;;;;;;;12.79;75.80;95010.72;1764865;79;21256;-51
2022/04/28 10:16:12;;;;;;;19.27;11.68;;;;;;;12.72;75.85;95017.28;1737769;79;21020;-51
2022/04/28 10:18:57;;;;;;;15.53;10.48;;;;;;;12.68;76.08;95018.66;1694707;82;21118;-50
2022/04/28 10:21:31;;;;;;;13.95;9.63;;;;;;;12.61;76.02;95010.64;1680854;85;21269;-53
2022/04/28 10:32:56;;;;;;;19.45;11.08;;;;;;;12.58;76.29;95004.05;1693529;82;21067;-50
2022/04/28 10:35:48;;;;;;;25.57;13.78;;;;;;;12.63;75.63;95006.22;1767546;81;21058;-52
2022/04/28 10:38:34;;;;;;;27.30;15.48;;;;;;;12.67;75.58;95010.98;1736261;81;21003;-51
2022/04/28 10:41:07;;;;;;;27.48;14.80;;;;;;;12.67;75.58;95010.20;1714442;79;21126;-51
2022/04/28 10:43:38;;;;;;;13.15;8.85;;;;;;;12.60;75.32;95017.38;1733769;81;21596;-52
2022/04/28 10:46:19;;;;;;;8.28;6.47;;;;;;;12.47;75.54;95016.70;1764710;80;21107;-53
2022/04/28 10:48:45;;;;;;;6.25;5.30;;;;;;;12.38;76.26;95021.40;1750326;79;21028;-52
2022/04/28 10:51:20;;;;;;;8.73;6.78;;;;;;;12.29;76.67;95024.87;1742823;81;21539;-51
2022/04/28 10:54:05;;;;;;;6.50;5.47;;;;;;;12.24;77.09;95023.33;1746272;79;21176;-52
2022/04/28 10:56:52;;;;;;;19.10;11.33;;;;;;;12.27;77.42;95035.59;1743554;81;21444;-50
2022/04/28 10:59:32;;;;;;;8.20;6.35;;;;;;;12.29;77.17;95040.67;1763031;80;20998;-51
2022/04/28 11:02:21;;;;;;;10.25;7.90;;;;;;;12.31;77.30;95033.50;1763709;81;20970;-51
2022/04/28 11:05:00;;;;;;;9.45;7.85;;;;;;;12.28;77.20;95041.27;1758285;79;21050;-53
2022/04/28 11:07:24;;;;;;;10.32;7.12;;;;;;;12.31;77.50;95043.16;1735161;81;21130;-52
2022/04/28 11:09:58;;;;;;;5.10;4.55;;;;;;;12.36;77.61;95041.78;1738652;79;21252;-51
2022/04/28 11:12:38;;;;;;;5.30;4.47;;;;;;;12.38;77.54;95043.47;1759668;79;21091;-53
2022/04/28 11:15:13;;;;;;;5.47;4.97;;;;;;;12.33;77.75;95042.69;1674302;83;21062;-52
2022/04/28 11:17:44;;;;;;;5.05;4.55;;;;;;;12.27;77.56;95039.73;1746264;79;21546;-54
2022/04/28 11:20:14;;;;;;;5.67;4.90;;;;;;;12.31;77.79;95044.53;1728558;79;20981;-51
2022/04/28 11:22:51;;;;;;;5.87;4.37;;;;;;;12.34;77.40;95049.14;1766311;79;21440;-54
2022/04/28 11:25:19;;;;;;;5.90;4.55;;;;;;;12.34;75.82;95047.77;1763066;79;21113;-50
2022/04/28 11:27:51;;;;;;;6.60;4.65;;;;;;;12.26;75.25;95042.96;1764273;80;21087;-50
2022/04/28 11:30:22;;;;;;;4.58;4.17;;;;;;;12.17;74.90;95045.05;1740749;80;20978;-51
2022/04/28 11:32:53;;;;;;;5.53;5.03;;;;;;;12.16;75.07;95040.75;1763503;79;21194;-53
2022/04/28 11:35:22;;;;;;;5.87;5.30;;;;;;;12.16;74.90;95041.34;1764546;79;21599;-54
2022/04/28 11:37:55;;;;;;;7.53;6.55;;;;;;;12.20;74.84;95045.52;1760207;79;21671;-54
2022/04/28 11:40:24;;;;;;;6.47;5.85;;;;;;;12.24;74.64;95047.53;1753653;79;21020;-56
2022/04/28 11:42:58;;;;;;;6.72;4.92;;;;;;;12.27;74.51;95038.98;1762565;79;21048;-54
2022/04/28 11:45:26;;;;;;;6.53;4.60;;;;;;;12.26;74.75;95042.34;1643301;84;22244;-53
2022/04/28 11:47:56;;;;;;;5.10;4.60;;;;;;;12.25;75.09;95049.07;1751473;79;21054;-51
2022/04/28 11:50:27;;;;;;;7.08;5.97;;;;;;;12.23;75.54;95046.00;1751166;79;21070;-52
2022/04/28 11:53:04;;;;;;;5.03;4.50;;;;;;;12.17;76.27;95042.89;1751830;79;21093;-53
2022/04/28 11:55:34;;;;;;;6.40;5.80;;;;;;;12.19;75.73;95048.13;1737057;79;21049;-53
2022/04/28 11:58:02;;;;;;;8.25;6.58;;;;;;;12.17;75.34;95053.92;1749304;81;21130;-52
2022/04/28 12:00:42;;;;;;;10.03;7.67;;;;;;;12.16;75.60;95054.55;1757930;79;21160;-55
2022/04/28 12:03:27;;;;;;;9.38;7.45;;;;;;;12.12;75.83;95051.12;1746643;79;21640;-52
2022/04/28 12:05:56;;;;;;;11.43;8.43;;;;;;;11.98;75.76;95055.80;1743593;79;21284;-51
2022/04/28 12:08:24;;;;;;;10.58;7.72;;;;;;;11.91;76.06;95061.54;1758272;79;21022;-53
2022/04/28 12:19:19;;;;;;;18.40;11.80;;;;;;;11.67;77.48;95062.40;1734929;79;21093;-55
2022/04/28 12:21:47;;;;;;;15.83;10.48;;;;;;;11.67;78.20;95063.78;1748344;81;21007;-54